sensor_id;sensor_type;location;lat;lon;timestamp;P1;durP1;ratioP1;P2;durP2;ratioP2
71814;SDS011;59659;41.520;23.794;2022-09-09T00:00:13;9.57;;;6.47;;
71814;SDS011;59659;41.520;23.794;2022-09-09T00:06:43;10.10;;;7.13;;
71814;SDS011;59659;41.520;23.794;2022-09-09T00:07:57;9.47;;;5.77;;
71814;SDS011;59659;41.520;23.794;2022-09-09T00:09:12;9.67;;;6.30;;
71814;SDS011;59659;41.520;23.794;2022-09-09T00:14:24;9.60;;;6.57;;
71814;SDS011;59659;41.520;23.794;2022-09-09T00:16:55;8.73;;;5.73;;
71814;SDS011;59659;41.520;23.794;2022-09-09T00:18:11;11.00;;;6.17;;
71814;SDS011;59659;41.520;23.794;2022-09-09T00:19:28;8.47;;;6.70;;
71814;SDS011;59659;41.520;23.794;2022-09-09T00:21:57;9.33;;;6.43;;
71814;SDS011;59659;41.520;23.794;2022-09-09T00:23:22;9.87;;;6.67;;
71814;SDS011;59659;41.520;23.794;2022-09-09T00:24:41;11.37;;;6.57;;
71814;SDS011;59659;41.520;23.794;2022-09-09T00:28:28;9.73;;;6.37;;
71814;SDS011;59659;41.520;23.794;2022-09-09T00:30:55;9.00;;;6.47;;
71814;SDS011;59659;41.520;23.794;2022-09-09T00:32:12;8.70;;;6.13;;
71814;SDS011;59659;41.520;23.794;2022-09-09T00:33:24;8.13;;;5.37;;
71814;SDS011;59659;41.520;23.794;2022-09-09T00:34:38;10.23;;;5.80;;
71814;SDS011;59659;41.520;23.794;2022-09-09T00:35:52;8.67;;;6.33;;
71814;SDS011;59659;41.520;23.794;2022-09-09T00:37:04;8.17;;;5.30;;
71814;SDS011;59659;41.520;23.794;2022-09-09T00:38:18;7.97;;;5.73;;
71814;SDS011;59659;41.520;23.794;2022-09-09T00:41:05;11.17;;;7.40;;
71814;SDS011;59659;41.520;23.794;2022-09-09T00:42:23;9.67;;;6.33;;
71814;SDS011;59659;41.520;23.794;2022-09-09T00:43:38;14.13;;;6.73;;
71814;SDS011;59659;41.520;23.794;2022-09-09T00:50:34;9.07;;;5.90;;
71814;SDS011;59659;41.520;23.794;2022-09-09T00:51:59;12.43;;;6.00;;
71814;SDS011;59659;41.520;23.794;2022-09-09T00:53:34;11.60;;;6.40;;
71814;SDS011;59659;41.520;23.794;2022-09-09T00:56:13;8.73;;;6.07;;
71814;SDS011;59659;41.520;23.794;2022-09-09T00:57:29;11.83;;;5.90;;
71814;SDS011;59659;41.520;23.794;2022-09-09T00:58:42;9.60;;;6.40;;
71814;SDS011;59659;41.520;23.794;2022-09-09T00:59:59;9.37;;;6.20;;
71814;SDS011;59659;41.520;23.794;2022-09-09T01:01:12;12.83;;;7.00;;
71814;SDS011;59659;41.520;23.794;2022-09-09T01:02:28;10.73;;;7.40;;
71814;SDS011;59659;41.520;23.794;2022-09-09T01:05:05;9.57;;;6.40;;
71814;SDS011;59659;41.520;23.794;2022-09-09T01:07:36;9.30;;;6.30;;
71814;SDS011;59659;41.520;23.794;2022-09-09T01:10:24;12.27;;;6.77;;
71814;SDS011;59659;41.520;23.794;2022-09-09T01:12:55;12.43;;;6.97;;
71814;SDS011;59659;41.520;23.794;2022-09-09T01:15:38;14.27;;;7.30;;
71814;SDS011;59659;41.520;23.794;2022-09-09T01:16:54;13.80;;;8.60;;
71814;SDS011;59659;41.520;23.794;2022-09-09T01:19:20;10.63;;;6.80;;
71814;SDS011;59659;41.520;23.794;2022-09-09T01:22:05;10.50;;;6.37;;
71814;SDS011;59659;41.520;23.794;2022-09-09T01:24:07;14.50;;;7.47;;
71814;SDS011;59659;41.520;23.794;2022-09-09T01:27:31;10.17;;;6.80;;
71814;SDS011;59659;41.520;23.794;2022-09-09T01:28:44;10.87;;;7.07;;
71814;SDS011;59659;41.520;23.794;2022-09-09T01:29:56;9.27;;;6.27;;
71814;SDS011;59659;41.520;23.794;2022-09-09T01:31:09;8.93;;;6.17;;
71814;SDS011;59659;41.520;23.794;2022-09-09T01:32:42;14.03;;;7.40;;
71814;SDS011;59659;41.520;23.794;2022-09-09T01:33:54;10.70;;;5.87;;
71814;SDS011;59659;41.520;23.794;2022-09-09T01:35:07;9.37;;;6.50;;
71814;SDS011;59659;41.520;23.794;2022-09-09T01:37:52;8.70;;;5.77;;
71814;SDS011;59659;41.520;23.794;2022-09-09T01:39:04;8.60;;;6.37;;
71814;SDS011;59659;41.520;23.794;2022-09-09T01:40:15;9.63;;;6.40;;
71814;SDS011;59659;41.520;23.794;2022-09-09T01:41:27;11.40;;;6.47;;
71814;SDS011;59659;41.520;23.794;2022-09-09T01:42:39;9.63;;;6.53;;
71814;SDS011;59659;41.520;23.794;2022-09-09T01:43:50;11.53;;;6.40;;
71814;SDS011;59659;41.520;23.794;2022-09-09T01:45:03;12.90;;;6.53;;
71814;SDS011;59659;41.520;23.794;2022-09-09T01:46:15;10.97;;;6.97;;
71814;SDS011;59659;41.520;23.794;2022-09-09T01:47:27;11.43;;;7.50;;
71814;SDS011;59659;41.520;23.794;2022-09-09T01:48:39;14.70;;;7.10;;
71814;SDS011;59659;41.520;23.794;2022-09-09T01:49:51;9.27;;;6.60;;
71814;SDS011;59659;41.520;23.794;2022-09-09T01:51:03;10.53;;;7.37;;
71814;SDS011;59659;41.520;23.794;2022-09-09T01:52:14;9.27;;;7.37;;
71814;SDS011;59659;41.520;23.794;2022-09-09T01:53:26;12.63;;;6.57;;
71814;SDS011;59659;41.520;23.794;2022-09-09T01:54:37;9.97;;;6.03;;
71814;SDS011;59659;41.520;23.794;2022-09-09T02:00:59;9.97;;;6.33;;
71814;SDS011;59659;41.520;23.794;2022-09-09T02:02:14;11.00;;;5.70;;
71814;SDS011;59659;41.520;23.794;2022-09-09T02:03:27;8.20;;;5.70;;
71814;SDS011;59659;41.520;23.794;2022-09-09T02:04:41;12.33;;;6.80;;
71814;SDS011;59659;41.520;23.794;2022-09-09T02:10:05;8.23;;;6.00;;
71814;SDS011;59659;41.520;23.794;2022-09-09T02:11:21;18.37;;;6.30;;
71814;SDS011;59659;41.520;23.794;2022-09-09T02:12:33;9.70;;;6.13;;
71814;SDS011;59659;41.520;23.794;2022-09-09T02:13:48;10.47;;;6.10;;
71814;SDS011;59659;41.520;23.794;2022-09-09T02:15:06;13.60;;;6.63;;
71814;SDS011;59659;41.520;23.794;2022-09-09T02:17:34;8.77;;;6.10;;
71814;SDS011;59659;41.520;23.794;2022-09-09T02:18:48;9.07;;;5.57;;
71814;SDS011;59659;41.520;23.794;2022-09-09T02:20:05;10.80;;;6.37;;
71814;SDS011;59659;41.520;23.794;2022-09-09T02:21:19;10.77;;;6.40;;
71814;SDS011;59659;41.520;23.794;2022-09-09T02:22:30;9.00;;;6.17;;
71814;SDS011;59659;41.520;23.794;2022-09-09T02:23:47;9.53;;;6.90;;
71814;SDS011;59659;41.520;23.794;2022-09-09T02:24:59;13.57;;;7.10;;
71814;SDS011;59659;41.520;23.794;2022-09-09T02:26:12;11.80;;;6.57;;
71814;SDS011;59659;41.520;23.794;2022-09-09T02:27:24;13.03;;;6.43;;
71814;SDS011;59659;41.520;23.794;2022-09-09T02:28:36;13.20;;;6.57;;
71814;SDS011;59659;41.520;23.794;2022-09-09T02:29:48;10.00;;;7.30;;
71814;SDS011;59659;41.520;23.794;2022-09-09T02:31:01;8.87;;;5.87;;
71814;SDS011;59659;41.520;23.794;2022-09-09T02:32:14;11.47;;;6.57;;
71814;SDS011;59659;41.520;23.794;2022-09-09T02:33:28;7.97;;;5.30;;
71814;SDS011;59659;41.520;23.794;2022-09-09T02:34:42;8.90;;;6.40;;
71814;SDS011;59659;41.520;23.794;2022-09-09T02:35:54;9.87;;;6.53;;
71814;SDS011;59659;41.520;23.794;2022-09-09T02:37:08;13.07;;;6.73;;
71814;SDS011;59659;41.520;23.794;2022-09-09T02:38:20;10.67;;;6.67;;
71814;SDS011;59659;41.520;23.794;2022-09-09T02:39:33;9.07;;;6.30;;
71814;SDS011;59659;41.520;23.794;2022-09-09T02:40:44;19.93;;;9.27;;
71814;SDS011;59659;41.520;23.794;2022-09-09T02:41:56;8.70;;;6.53;;
71814;SDS011;59659;41.520;23.794;2022-09-09T02:43:08;9.73;;;6.00;;
71814;SDS011;59659;41.520;23.794;2022-09-09T02:44:20;9.87;;;6.40;;
71814;SDS011;59659;41.520;23.794;2022-09-09T02:45:39;13.00;;;6.40;;
71814;SDS011;59659;41.520;23.794;2022-09-09T02:47:00;12.17;;;6.73;;
71814;SDS011;59659;41.520;23.794;2022-09-09T02:48:17;9.40;;;6.40;;
71814;SDS011;59659;41.520;23.794;2022-09-09T02:51:12;9.07;;;6.00;;
71814;SDS011;59659;41.520;23.794;2022-09-09T02:52:29;10.57;;;5.87;;
71814;SDS011;59659;41.520;23.794;2022-09-09T02:53:43;6.37;;;4.90;;
71814;SDS011;59659;41.520;23.794;2022-09-09T02:54:58;10.80;;;6.70;;
71814;SDS011;59659;41.520;23.794;2022-09-09T02:56:17;10.80;;;6.63;;
71814;SDS011;59659;41.520;23.794;2022-09-09T02:57:31;9.17;;;5.53;;
71814;SDS011;59659;41.520;23.794;2022-09-09T02:58:43;9.20;;;5.83;;
71814;SDS011;59659;41.520;23.794;2022-09-09T02:59:56;8.17;;;5.73;;
71814;SDS011;59659;41.520;23.794;2022-09-09T03:01:08;8.23;;;5.27;;
71814;SDS011;59659;41.520;23.794;2022-09-09T03:02:20;7.97;;;5.87;;
71814;SDS011;59659;41.520;23.794;2022-09-09T03:03:31;8.77;;;6.03;;
71814;SDS011;59659;41.520;23.794;2022-09-09T03:04:43;8.43;;;5.73;;
71814;SDS011;59659;41.520;23.794;2022-09-09T03:05:55;8.30;;;5.53;;
71814;SDS011;59659;41.520;23.794;2022-09-09T03:07:08;9.20;;;6.23;;
71814;SDS011;59659;41.520;23.794;2022-09-09T03:08:21;10.07;;;6.17;;
71814;SDS011;59659;41.520;23.794;2022-09-09T03:09:32;7.83;;;6.10;;
71814;SDS011;59659;41.520;23.794;2022-09-09T03:10:44;8.00;;;5.93;;
71814;SDS011;59659;41.520;23.794;2022-09-09T03:11:56;8.43;;;6.03;;
71814;SDS011;59659;41.520;23.794;2022-09-09T03:13:07;9.83;;;6.17;;
71814;SDS011;59659;41.520;23.794;2022-09-09T03:14:19;12.93;;;6.53;;
71814;SDS011;59659;41.520;23.794;2022-09-09T03:15:32;8.67;;;6.20;;
71814;SDS011;59659;41.520;23.794;2022-09-09T03:16:44;8.53;;;5.60;;
71814;SDS011;59659;41.520;23.794;2022-09-09T03:17:55;8.73;;;5.97;;
71814;SDS011;59659;41.520;23.794;2022-09-09T03:19:08;10.83;;;6.23;;
71814;SDS011;59659;41.520;23.794;2022-09-09T03:20:19;10.67;;;6.70;;
71814;SDS011;59659;41.520;23.794;2022-09-09T03:21:31;11.53;;;7.57;;
71814;SDS011;59659;41.520;23.794;2022-09-09T03:22:43;9.33;;;6.57;;
71814;SDS011;59659;41.520;23.794;2022-09-09T03:23:56;8.47;;;5.47;;
71814;SDS011;59659;41.520;23.794;2022-09-09T03:25:08;10.33;;;7.20;;
71814;SDS011;59659;41.520;23.794;2022-09-09T03:26:20;9.13;;;6.60;;
71814;SDS011;59659;41.520;23.794;2022-09-09T03:27:31;10.53;;;6.30;;
71814;SDS011;59659;41.520;23.794;2022-09-09T03:28:43;8.13;;;6.40;;
71814;SDS011;59659;41.520;23.794;2022-09-09T03:29:55;11.63;;;6.97;;
71814;SDS011;59659;41.520;23.794;2022-09-09T03:31:07;10.43;;;6.70;;
71814;SDS011;59659;41.520;23.794;2022-09-09T03:32:21;12.27;;;6.97;;
71814;SDS011;59659;41.520;23.794;2022-09-09T03:33:33;10.70;;;6.27;;
71814;SDS011;59659;41.520;23.794;2022-09-09T03:34:45;10.17;;;6.40;;
71814;SDS011;59659;41.520;23.794;2022-09-09T03:35:58;9.07;;;6.27;;
71814;SDS011;59659;41.520;23.794;2022-09-09T03:37:10;8.23;;;6.10;;
71814;SDS011;59659;41.520;23.794;2022-09-09T03:38:25;10.20;;;6.50;;
71814;SDS011;59659;41.520;23.794;2022-09-09T03:39:36;11.43;;;7.40;;
71814;SDS011;59659;41.520;23.794;2022-09-09T03:40:52;13.57;;;6.97;;
71814;SDS011;59659;41.520;23.794;2022-09-09T03:42:06;9.60;;;5.87;;
71814;SDS011;59659;41.520;23.794;2022-09-09T03:43:17;11.10;;;6.93;;
71814;SDS011;59659;41.520;23.794;2022-09-09T03:44:29;9.47;;;5.87;;
71814;SDS011;59659;41.520;23.794;2022-09-09T03:45:45;12.60;;;6.17;;
71814;SDS011;59659;41.520;23.794;2022-09-09T03:46:57;9.70;;;6.53;;
71814;SDS011;59659;41.520;23.794;2022-09-09T03:48:11;12.47;;;6.50;;
71814;SDS011;59659;41.520;23.794;2022-09-09T03:49:23;11.50;;;7.03;;
71814;SDS011;59659;41.520;23.794;2022-09-09T03:50:35;10.20;;;6.33;;
71814;SDS011;59659;41.520;23.794;2022-09-09T03:51:46;9.63;;;5.53;;
71814;SDS011;59659;41.520;23.794;2022-09-09T03:52:58;9.17;;;6.37;;
71814;SDS011;59659;41.520;23.794;2022-09-09T03:54:09;9.07;;;5.90;;
71814;SDS011;59659;41.520;23.794;2022-09-09T03:55:21;10.67;;;6.17;;
71814;SDS011;59659;41.520;23.794;2022-09-09T03:56:32;9.83;;;6.10;;
71814;SDS011;59659;41.520;23.794;2022-09-09T03:57:44;12.27;;;6.27;;
71814;SDS011;59659;41.520;23.794;2022-09-09T03:58:57;8.73;;;5.83;;
71814;SDS011;59659;41.520;23.794;2022-09-09T04:00:09;8.03;;;5.53;;
71814;SDS011;59659;41.520;23.794;2022-09-09T04:01:21;9.80;;;6.67;;
71814;SDS011;59659;41.520;23.794;2022-09-09T04:02:32;11.50;;;7.23;;
71814;SDS011;59659;41.520;23.794;2022-09-09T04:03:44;14.20;;;7.03;;
71814;SDS011;59659;41.520;23.794;2022-09-09T04:04:56;11.93;;;6.47;;
71814;SDS011;59659;41.520;23.794;2022-09-09T04:06:08;10.20;;;6.57;;
71814;SDS011;59659;41.520;23.794;2022-09-09T04:07:20;12.13;;;7.03;;
71814;SDS011;59659;41.520;23.794;2022-09-09T04:08:32;9.10;;;5.93;;
71814;SDS011;59659;41.520;23.794;2022-09-09T04:09:44;10.87;;;6.77;;
71814;SDS011;59659;41.520;23.794;2022-09-09T04:10:55;11.50;;;5.63;;
71814;SDS011;59659;41.520;23.794;2022-09-09T04:12:09;8.80;;;6.23;;
71814;SDS011;59659;41.520;23.794;2022-09-09T04:13:24;10.57;;;6.70;;
71814;SDS011;59659;41.520;23.794;2022-09-09T04:14:36;10.67;;;6.67;;
71814;SDS011;59659;41.520;23.794;2022-09-09T04:15:51;10.60;;;7.43;;
71814;SDS011;59659;41.520;23.794;2022-09-09T04:17:03;8.20;;;5.83;;
71814;SDS011;59659;41.520;23.794;2022-09-09T04:18:17;11.60;;;7.43;;
71814;SDS011;59659;41.520;23.794;2022-09-09T04:19:30;11.87;;;6.70;;
71814;SDS011;59659;41.520;23.794;2022-09-09T04:20:42;12.20;;;7.77;;
71814;SDS011;59659;41.520;23.794;2022-09-09T04:21:54;16.50;;;7.00;;
71814;SDS011;59659;41.520;23.794;2022-09-09T04:23:06;10.33;;;7.07;;
71814;SDS011;59659;41.520;23.794;2022-09-09T04:24:17;9.13;;;6.10;;
71814;SDS011;59659;41.520;23.794;2022-09-09T04:25:28;12.23;;;7.17;;
71814;SDS011;59659;41.520;23.794;2022-09-09T04:26:40;11.50;;;6.37;;
71814;SDS011;59659;41.520;23.794;2022-09-09T04:27:54;8.10;;;6.40;;
71814;SDS011;59659;41.520;23.794;2022-09-09T04:29:06;10.77;;;6.20;;
71814;SDS011;59659;41.520;23.794;2022-09-09T04:30:18;9.17;;;5.40;;
71814;SDS011;59659;41.520;23.794;2022-09-09T04:31:30;9.87;;;6.27;;
71814;SDS011;59659;41.520;23.794;2022-09-09T04:32:42;10.47;;;6.33;;
71814;SDS011;59659;41.520;23.794;2022-09-09T04:33:53;8.00;;;6.37;;
71814;SDS011;59659;41.520;23.794;2022-09-09T04:35:05;12.53;;;6.70;;
71814;SDS011;59659;41.520;23.794;2022-09-09T04:36:16;10.07;;;6.17;;
71814;SDS011;59659;41.520;23.794;2022-09-09T04:37:29;15.93;;;7.77;;
71814;SDS011;59659;41.520;23.794;2022-09-09T04:38:41;14.00;;;7.73;;
71814;SDS011;59659;41.520;23.794;2022-09-09T04:39:53;13.37;;;7.30;;
71814;SDS011;59659;41.520;23.794;2022-09-09T04:41:04;21.23;;;8.53;;
71814;SDS011;59659;41.520;23.794;2022-09-09T04:42:16;10.80;;;6.77;;
71814;SDS011;59659;41.520;23.794;2022-09-09T04:43:28;9.90;;;6.50;;
71814;SDS011;59659;41.520;23.794;2022-09-09T04:44:42;13.87;;;7.33;;
71814;SDS011;59659;41.520;23.794;2022-09-09T04:45:53;12.63;;;6.90;;
71814;SDS011;59659;41.520;23.794;2022-09-09T04:47:05;11.27;;;6.23;;
71814;SDS011;59659;41.520;23.794;2022-09-09T04:48:16;9.47;;;6.50;;
71814;SDS011;59659;41.520;23.794;2022-09-09T04:49:28;12.67;;;6.60;;
71814;SDS011;59659;41.520;23.794;2022-09-09T04:50:39;12.43;;;6.33;;
71814;SDS011;59659;41.520;23.794;2022-09-09T04:51:54;18.70;;;6.70;;
71814;SDS011;59659;41.520;23.794;2022-09-09T04:53:05;10.97;;;6.57;;
71814;SDS011;59659;41.520;23.794;2022-09-09T04:54:17;10.17;;;5.73;;
71814;SDS011;59659;41.520;23.794;2022-09-09T04:55:28;8.73;;;5.60;;
71814;SDS011;59659;41.520;23.794;2022-09-09T04:56:41;8.87;;;5.73;;
71814;SDS011;59659;41.520;23.794;2022-09-09T04:57:53;11.07;;;6.70;;
71814;SDS011;59659;41.520;23.794;2022-09-09T04:59:05;8.00;;;5.33;;
71814;SDS011;59659;41.520;23.794;2022-09-09T05:00:16;8.63;;;6.03;;
71814;SDS011;59659;41.520;23.794;2022-09-09T05:01:28;8.17;;;5.87;;
71814;SDS011;59659;41.520;23.794;2022-09-09T05:02:40;8.23;;;6.13;;
71814;SDS011;59659;41.520;23.794;2022-09-09T05:03:53;16.43;;;7.17;;
71814;SDS011;59659;41.520;23.794;2022-09-09T05:05:05;17.10;;;7.77;;
71814;SDS011;59659;41.520;23.794;2022-09-09T05:06:18;12.87;;;7.80;;
71814;SDS011;59659;41.520;23.794;2022-09-09T05:07:30;11.17;;;6.90;;
71814;SDS011;59659;41.520;23.794;2022-09-09T05:08:42;18.53;;;7.73;;
71814;SDS011;59659;41.520;23.794;2022-09-09T05:09:54;14.23;;;7.70;;
71814;SDS011;59659;41.520;23.794;2022-09-09T05:11:13;13.63;;;7.90;;
71814;SDS011;59659;41.520;23.794;2022-09-09T05:12:25;10.63;;;7.60;;
71814;SDS011;59659;41.520;23.794;2022-09-09T05:13:36;10.03;;;6.97;;
71814;SDS011;59659;41.520;23.794;2022-09-09T05:14:52;10.53;;;6.83;;
71814;SDS011;59659;41.520;23.794;2022-09-09T05:16:04;11.20;;;7.80;;
71814;SDS011;59659;41.520;23.794;2022-09-09T05:17:15;14.03;;;7.83;;
71814;SDS011;59659;41.520;23.794;2022-09-09T05:18:27;12.40;;;8.10;;
71814;SDS011;59659;41.520;23.794;2022-09-09T05:19:39;12.63;;;7.37;;
71814;SDS011;59659;41.520;23.794;2022-09-09T05:20:50;11.17;;;6.60;;
71814;SDS011;59659;41.520;23.794;2022-09-09T05:22:02;17.30;;;7.23;;
71814;SDS011;59659;41.520;23.794;2022-09-09T05:23:13;11.43;;;7.27;;
71814;SDS011;59659;41.520;23.794;2022-09-09T05:24:25;8.60;;;6.57;;
71814;SDS011;59659;41.520;23.794;2022-09-09T05:25:37;14.90;;;8.23;;
71814;SDS011;59659;41.520;23.794;2022-09-09T05:26:49;9.87;;;7.67;;
71814;SDS011;59659;41.520;23.794;2022-09-09T05:28:00;12.27;;;7.90;;
71814;SDS011;59659;41.520;23.794;2022-09-09T05:29:12;18.10;;;10.23;;
71814;SDS011;59659;41.520;23.794;2022-09-09T05:30:23;25.40;;;15.80;;
71814;SDS011;59659;41.520;23.794;2022-09-09T05:31:37;17.37;;;8.77;;
71814;SDS011;59659;41.520;23.794;2022-09-09T05:32:50;15.43;;;8.17;;
71814;SDS011;59659;41.520;23.794;2022-09-09T05:34:02;16.23;;;7.00;;
71814;SDS011;59659;41.520;23.794;2022-09-09T05:35:13;13.93;;;7.33;;
71814;SDS011;59659;41.520;23.794;2022-09-09T05:36:25;15.67;;;10.53;;
71814;SDS011;59659;41.520;23.794;2022-09-09T05:37:36;15.67;;;9.43;;
71814;SDS011;59659;41.520;23.794;2022-09-09T05:38:51;16.83;;;10.43;;
71814;SDS011;59659;41.520;23.794;2022-09-09T05:40:05;13.83;;;9.27;;
71814;SDS011;59659;41.520;23.794;2022-09-09T05:41:19;12.97;;;9.50;;
71814;SDS011;59659;41.520;23.794;2022-09-09T05:42:31;15.10;;;8.83;;
71814;SDS011;59659;41.520;23.794;2022-09-09T05:43:44;12.80;;;8.13;;
71814;SDS011;59659;41.520;23.794;2022-09-09T05:44:59;9.70;;;6.43;;
71814;SDS011;59659;41.520;23.794;2022-09-09T05:46:11;10.10;;;6.67;;
71814;SDS011;59659;41.520;23.794;2022-09-09T05:47:22;11.43;;;7.27;;
71814;SDS011;59659;41.520;23.794;2022-09-09T05:48:35;17.40;;;7.43;;
71814;SDS011;59659;41.520;23.794;2022-09-09T05:49:47;11.07;;;7.27;;
71814;SDS011;59659;41.520;23.794;2022-09-09T05:50:58;13.73;;;8.27;;
71814;SDS011;59659;41.520;23.794;2022-09-09T05:52:10;22.20;;;8.47;;
71814;SDS011;59659;41.520;23.794;2022-09-09T05:53:21;13.00;;;8.33;;
71814;SDS011;59659;41.520;23.794;2022-09-09T05:54:33;11.97;;;8.10;;
71814;SDS011;59659;41.520;23.794;2022-09-09T05:55:44;11.30;;;8.10;;
71814;SDS011;59659;41.520;23.794;2022-09-09T05:56:56;10.70;;;7.10;;
71814;SDS011;59659;41.520;23.794;2022-09-09T05:58:07;11.07;;;7.50;;
71814;SDS011;59659;41.520;23.794;2022-09-09T05:59:20;11.17;;;7.50;;
71814;SDS011;59659;41.520;23.794;2022-09-09T06:00:31;10.23;;;6.67;;
71814;SDS011;59659;41.520;23.794;2022-09-09T06:01:43;13.40;;;7.47;;
71814;SDS011;59659;41.520;23.794;2022-09-09T06:02:56;11.63;;;6.50;;
71814;SDS011;59659;41.520;23.794;2022-09-09T06:04:08;9.20;;;6.33;;
71814;SDS011;59659;41.520;23.794;2022-09-09T06:05:20;9.00;;;7.10;;
71814;SDS011;59659;41.520;23.794;2022-09-09T06:06:32;28.40;;;8.33;;
71814;SDS011;59659;41.520;23.794;2022-09-09T06:07:48;11.80;;;7.87;;
71814;SDS011;59659;41.520;23.794;2022-09-09T06:08:59;9.77;;;6.77;;
71814;SDS011;59659;41.520;23.794;2022-09-09T06:10:11;18.83;;;8.33;;
71814;SDS011;59659;41.520;23.794;2022-09-09T06:11:25;12.73;;;7.33;;
71814;SDS011;59659;41.520;23.794;2022-09-09T06:12:37;12.57;;;8.10;;
71814;SDS011;59659;41.520;23.794;2022-09-09T06:13:50;11.60;;;7.90;;
71814;SDS011;59659;41.520;23.794;2022-09-09T06:15:04;14.07;;;7.83;;
71814;SDS011;59659;41.520;23.794;2022-09-09T06:16:18;13.07;;;8.20;;
71814;SDS011;59659;41.520;23.794;2022-09-09T06:17:30;13.60;;;8.53;;
71814;SDS011;59659;41.520;23.794;2022-09-09T06:18:42;14.63;;;8.57;;
71814;SDS011;59659;41.520;23.794;2022-09-09T06:19:53;10.50;;;7.57;;
71814;SDS011;59659;41.520;23.794;2022-09-09T06:21:06;10.30;;;7.43;;
71814;SDS011;59659;41.520;23.794;2022-09-09T06:22:18;14.63;;;8.63;;
71814;SDS011;59659;41.520;23.794;2022-09-09T06:23:30;13.00;;;8.03;;
71814;SDS011;59659;41.520;23.794;2022-09-09T06:24:41;12.83;;;9.53;;
71814;SDS011;59659;41.520;23.794;2022-09-09T06:26:03;13.07;;;8.17;;
71814;SDS011;59659;41.520;23.794;2022-09-09T06:27:16;10.73;;;8.20;;
71814;SDS011;59659;41.520;23.794;2022-09-09T06:28:28;14.87;;;8.80;;
71814;SDS011;59659;41.520;23.794;2022-09-09T06:29:40;11.50;;;7.80;;
71814;SDS011;59659;41.520;23.794;2022-09-09T06:30:57;15.40;;;8.83;;
71814;SDS011;59659;41.520;23.794;2022-09-09T06:32:09;11.50;;;7.47;;
71814;SDS011;59659;41.520;23.794;2022-09-09T06:33:20;14.37;;;8.40;;
71814;SDS011;59659;41.520;23.794;2022-09-09T06:34:32;14.27;;;7.23;;
71814;SDS011;59659;41.520;23.794;2022-09-09T06:35:50;12.53;;;8.03;;
71814;SDS011;59659;41.520;23.794;2022-09-09T06:37:03;11.60;;;8.20;;
71814;SDS011;59659;41.520;23.794;2022-09-09T06:38:15;14.77;;;8.30;;
71814;SDS011;59659;41.520;23.794;2022-09-09T06:39:27;12.43;;;8.43;;
71814;SDS011;59659;41.520;23.794;2022-09-09T06:40:38;16.23;;;9.00;;
71814;SDS011;59659;41.520;23.794;2022-09-09T06:41:51;15.47;;;9.77;;
71814;SDS011;59659;41.520;23.794;2022-09-09T06:43:04;11.73;;;8.63;;
71814;SDS011;59659;41.520;23.794;2022-09-09T06:44:16;13.50;;;8.43;;
71814;SDS011;59659;41.520;23.794;2022-09-09T06:45:27;16.07;;;10.27;;
71814;SDS011;59659;41.520;23.794;2022-09-09T06:46:40;12.27;;;8.50;;
71814;SDS011;59659;41.520;23.794;2022-09-09T06:47:54;16.70;;;8.20;;
71814;SDS011;59659;41.520;23.794;2022-09-09T06:49:05;14.70;;;8.97;;
71814;SDS011;59659;41.520;23.794;2022-09-09T06:50:17;22.17;;;9.87;;
71814;SDS011;59659;41.520;23.794;2022-09-09T06:51:30;12.57;;;8.13;;
71814;SDS011;59659;41.520;23.794;2022-09-09T06:52:42;10.20;;;7.37;;
71814;SDS011;59659;41.520;23.794;2022-09-09T06:53:55;10.80;;;8.07;;
71814;SDS011;59659;41.520;23.794;2022-09-09T06:55:07;12.53;;;8.20;;
71814;SDS011;59659;41.520;23.794;2022-09-09T06:56:20;16.60;;;8.63;;
71814;SDS011;59659;41.520;23.794;2022-09-09T06:57:35;11.10;;;7.60;;
71814;SDS011;59659;41.520;23.794;2022-09-09T06:58:48;11.20;;;7.23;;
71814;SDS011;59659;41.520;23.794;2022-09-09T07:00:00;12.40;;;7.90;;
71814;SDS011;59659;41.520;23.794;2022-09-09T07:01:13;11.40;;;8.07;;
71814;SDS011;59659;41.520;23.794;2022-09-09T07:02:25;15.33;;;7.80;;
71814;SDS011;59659;41.520;23.794;2022-09-09T07:03:37;11.23;;;7.90;;
71814;SDS011;59659;41.520;23.794;2022-09-09T07:04:49;17.10;;;9.27;;
71814;SDS011;59659;41.520;23.794;2022-09-09T07:06:02;15.27;;;8.30;;
71814;SDS011;59659;41.520;23.794;2022-09-09T07:07:15;12.90;;;7.43;;
71814;SDS011;59659;41.520;23.794;2022-09-09T07:08:27;10.33;;;7.90;;
71814;SDS011;59659;41.520;23.794;2022-09-09T07:09:39;11.73;;;8.20;;
71814;SDS011;59659;41.520;23.794;2022-09-09T07:10:51;11.77;;;7.27;;
71814;SDS011;59659;41.520;23.794;2022-09-09T07:12:05;9.53;;;7.43;;
71814;SDS011;59659;41.520;23.794;2022-09-09T07:13:17;19.57;;;7.27;;
71814;SDS011;59659;41.520;23.794;2022-09-09T07:14:28;9.53;;;6.83;;
71814;SDS011;59659;41.520;23.794;2022-09-09T07:15:39;11.47;;;7.57;;
71814;SDS011;59659;41.520;23.794;2022-09-09T07:16:51;11.43;;;7.13;;
71814;SDS011;59659;41.520;23.794;2022-09-09T07:18:07;14.27;;;8.10;;
71814;SDS011;59659;41.520;23.794;2022-09-09T07:19:21;11.20;;;7.80;;
71814;SDS011;59659;41.520;23.794;2022-09-09T07:20:32;13.57;;;8.10;;
71814;SDS011;59659;41.520;23.794;2022-09-09T07:21:44;9.67;;;6.90;;
71814;SDS011;59659;41.520;23.794;2022-09-09T07:22:56;10.07;;;7.03;;
71814;SDS011;59659;41.520;23.794;2022-09-09T07:24:08;13.13;;;7.87;;
71814;SDS011;59659;41.520;23.794;2022-09-09T07:25:21;10.70;;;7.40;;
71814;SDS011;59659;41.520;23.794;2022-09-09T07:26:33;11.70;;;7.63;;
71814;SDS011;59659;41.520;23.794;2022-09-09T07:27:44;10.30;;;6.83;;
71814;SDS011;59659;41.520;23.794;2022-09-09T07:28:56;12.63;;;7.50;;
71814;SDS011;59659;41.520;23.794;2022-09-09T07:30:08;11.63;;;8.03;;
71814;SDS011;59659;41.520;23.794;2022-09-09T07:31:21;10.60;;;6.97;;
71814;SDS011;59659;41.520;23.794;2022-09-09T07:32:33;11.47;;;7.30;;
71814;SDS011;59659;41.520;23.794;2022-09-09T07:33:44;9.67;;;7.40;;
71814;SDS011;59659;41.520;23.794;2022-09-09T07:34:56;9.67;;;6.83;;
71814;SDS011;59659;41.520;23.794;2022-09-09T07:36:10;11.23;;;6.70;;
71814;SDS011;59659;41.520;23.794;2022-09-09T07:37:23;11.60;;;7.27;;
71814;SDS011;59659;41.520;23.794;2022-09-09T07:38:42;10.13;;;7.27;;
71814;SDS011;59659;41.520;23.794;2022-09-09T07:39:54;17.83;;;7.20;;
71814;SDS011;59659;41.520;23.794;2022-09-09T07:41:07;9.43;;;6.00;;
71814;SDS011;59659;41.520;23.794;2022-09-09T07:42:22;8.67;;;6.27;;
71814;SDS011;59659;41.520;23.794;2022-09-09T07:43:34;9.17;;;7.07;;
71814;SDS011;59659;41.520;23.794;2022-09-09T07:44:45;9.20;;;6.73;;
71814;SDS011;59659;41.520;23.794;2022-09-09T07:45:58;9.53;;;7.37;;
71814;SDS011;59659;41.520;23.794;2022-09-09T07:47:09;10.60;;;6.90;;
71814;SDS011;59659;41.520;23.794;2022-09-09T07:48:21;9.23;;;6.77;;
71814;SDS011;59659;41.520;23.794;2022-09-09T07:49:32;10.40;;;6.47;;
71814;SDS011;59659;41.520;23.794;2022-09-09T07:50:44;8.60;;;6.50;;
71814;SDS011;59659;41.520;23.794;2022-09-09T07:51:55;9.30;;;6.40;;
71814;SDS011;59659;41.520;23.794;2022-09-09T07:53:07;8.57;;;6.60;;
71814;SDS011;59659;41.520;23.794;2022-09-09T07:54:19;7.63;;;5.80;;
71814;SDS011;59659;41.520;23.794;2022-09-09T07:55:34;8.77;;;6.30;;
71814;SDS011;59659;41.520;23.794;2022-09-09T07:56:46;13.00;;;6.33;;
71814;SDS011;59659;41.520;23.794;2022-09-09T07:57:58;7.53;;;5.80;;
71814;SDS011;59659;41.520;23.794;2022-09-09T07:59:09;13.20;;;5.93;;